Time;durP1;ratioP1;P1;durP2;ratioP2;P2;SDS_P1;SDS_P2;PMS_P1;PMS_P2;Temp;Humidity;BMP_temperature;BMP_pressure;BME280_temperature;BME280_humidity;BME280_pressure;Samples;Min_cycle;Max_cycle;Signal;HPM_P1;HPM_P2
2022/07/12 00:00:58;;;;;;;2.17;1.97;;;21.60;99.90;;;;;;5086840;28;20457;-79
2022/07/12 00:03:26;;;;;;;2.97;2.20;;;21.60;99.90;;;;;;5085023;28;20488;-80
2022/07/12 00:05:55;;;;;;;2.70;2.50;;;21.60;99.90;;;;;;5087480;28;20453;-80
2022/07/12 00:08:23;;;;;;;2.33;2.10;;;21.60;99.90;;;;;;5085269;28;20454;-80
2022/07/12 00:10:52;;;;;;;2.30;2.10;;;21.50;99.90;;;;;;5088895;28;20460;-79
2022/07/12 00:13:20;;;;;;;1.83;1.73;;;21.50;99.90;;;;;;5084894;28;20466;-80
2022/07/12 00:15:50;;;;;;;2.17;2.07;;;21.50;99.90;;;;;;5087228;28;20450;-79
2022/07/12 00:18:19;;;;;;;2.30;2.10;;;21.50;99.90;;;;;;5084978;28;21012;-79
2022/07/12 00:20:47;;;;;;;2.23;2.03;;;21.40;99.90;;;;;;5080601;28;20964;-80
2022/07/12 00:23:15;;;;;;;4.00;2.07;;;21.40;99.90;;;;;;5085327;28;20485;-79
2022/07/12 00:25:44;;;;;;;2.23;2.13;;;21.40;99.90;;;;;;5086829;28;20449;-80
2022/07/12 00:28:12;;;;;;;3.93;2.10;;;21.40;99.90;;;;;;5085154;28;20972;-80
2022/07/12 00:30:40;;;;;;;3.77;2.30;;;21.40;99.90;;;;;;5084611;28;20511;-80
2022/07/12 00:33:10;;;;;;;2.43;2.23;;;21.30;99.90;;;;;;5084499;28;20493;-80
2022/07/12 00:35:38;;;;;;;2.20;2.00;;;21.30;99.90;;;;;;5086846;28;20437;-79
2022/07/12 00:38:06;;;;;;;2.40;2.20;;;21.20;99.90;;;;;;5085159;28;20442;-80
2022/07/12 00:40:34;;;;;;;4.00;2.13;;;21.20;99.90;;;;;;5086807;28;20442;-80
2022/07/12 00:43:02;;;;;;;2.57;2.37;;;21.20;99.90;;;;;;5084178;28;20474;-79
2022/07/12 00:45:30;;;;;;;3.10;2.80;;;21.20;99.90;;;;;;5080765;28;20482;-80
2022/07/12 00:48:00;;;;;;;2.63;1.60;;;21.20;99.90;;;;;;5083126;28;20449;-80
2022/07/12 00:50:29;;;;;;;2.73;2.47;;;21.10;99.90;;;;;;5085341;28;20446;-79
2022/07/12 00:52:58;;;;;;;2.27;2.07;;;21.10;99.90;;;;;;5082080;28;20470;-79
2022/07/12 01:03:03;;;;;;;3.23;2.50;;;21.00;99.90;;;;;;5073793;28;20454;-80
2022/07/12 01:05:33;;;;;;;2.57;2.37;;;21.00;99.90;;;;;;5082732;28;20470;-79
2022/07/12 01:08:02;;;;;;;2.60;2.20;;;20.90;99.90;;;;;;5084010;28;20469;-80
2022/07/12 01:10:32;;;;;;;2.47;2.27;;;20.90;99.90;;;;;;5083200;28;20466;-79
2022/07/12 01:13:01;;;;;;;4.40;2.20;;;20.90;99.90;;;;;;5085564;28;20512;-79
2022/07/12 01:15:30;;;;;;;2.17;2.03;;;20.90;99.90;;;;;;5086119;28;20535;-80
2022/07/12 01:17:59;;;;;;;3.03;2.50;;;20.90;99.90;;;;;;5083267;28;20490;-79
2022/07/12 01:20:28;;;;;;;3.20;2.53;;;20.80;99.90;;;;;;5096071;28;20458;-80
2022/07/12 01:22:58;;;;;;;3.63;2.47;;;20.80;99.90;;;;;;5089985;28;20996;-80
2022/07/12 01:25:27;;;;;;;2.33;2.23;;;20.80;99.90;;;;;;5083714;28;22368;-80
2022/07/12 01:27:55;;;;;;;2.53;2.37;;;20.80;99.90;;;;;;5082430;28;20473;-80
2022/07/12 01:30:24;;;;;;;2.30;2.00;;;20.80;99.90;;;;;;5083165;28;20468;-81
2022/07/12 01:32:52;;;;;;;2.30;2.10;;;20.70;99.90;;;;;;5088247;28;20495;-80
2022/07/12 01:35:22;;;;;;;3.60;2.17;;;20.70;99.90;;;;;;5080654;28;20460;-79
2022/07/12 01:37:50;;;;;;;2.20;2.00;;;20.70;99.90;;;;;;5085717;28;20453;-79
2022/07/12 01:40:20;;;;;;;3.37;2.03;;;20.60;99.90;;;;;;5082486;28;20511;-79
2022/07/12 01:42:50;;;;;;;2.40;2.20;;;20.70;99.90;;;;;;5082360;28;20484;-79
2022/07/12 01:45:19;;;;;;;2.73;2.50;;;20.60;99.90;;;;;;5083002;28;20488;-80
2022/07/12 01:47:48;;;;;;;2.33;2.00;;;20.60;99.90;;;;;;5083870;28;20549;-80
2022/07/12 01:50:17;;;;;;;2.53;2.23;;;20.60;99.90;;;;;;5082012;28;20441;-80
2022/07/12 01:52:45;;;;;;;2.33;2.13;;;20.50;99.90;;;;;;5086881;28;20473;-79
2022/07/12 01:55:14;;;;;;;2.30;2.10;;;20.50;99.90;;;;;;5074310;28;20545;-79
2022/07/12 01:57:44;;;;;;;3.20;2.20;;;20.50;99.90;;;;;;5081839;28;20552;-80
2022/07/12 02:00:14;;;;;;;2.43;2.00;;;20.80;99.90;;;;;;5083417;28;20794;-79
2022/07/12 02:02:44;;;;;;;2.83;2.63;;;20.50;99.90;;;;;;5084425;28;21020;-80
2022/07/12 02:05:12;;;;;;;2.83;2.30;;;20.50;99.90;;;;;;5081813;28;20568;-81
2022/07/12 02:07:41;;;;;;;2.40;2.20;;;20.50;99.90;;;;;;5084401;28;20455;-80
2022/07/12 02:10:10;;;;;;;3.27;2.60;;;20.40;99.90;;;;;;5085010;28;20461;-80
2022/07/12 02:12:38;;;;;;;2.33;1.80;;;20.40;99.90;;;;;;5081937;28;20470;-80
2022/07/12 02:15:10;;;;;;;2.30;2.10;;;20.40;99.90;;;;;;5082072;28;20578;-79
2022/07/12 02:17:38;;;;;;;2.87;2.03;;;20.40;99.90;;;;;;5076667;28;20972;-81
2022/07/12 02:20:09;;;;;;;3.27;2.23;;;20.30;99.90;;;;;;5086223;28;20448;-80
2022/07/12 02:22:38;;;;;;;3.10;2.77;;;20.30;99.90;;;;;;5085133;28;20466;-80
2022/07/12 02:25:07;;;;;;;3.03;2.10;;;20.30;99.90;;;;;;5079654;28;20848;-82
2022/07/12 02:27:35;;;;;;;2.77;2.57;;;20.20;99.90;;;;;;5084838;28;21031;-81
2022/07/12 02:30:03;;;;;;;2.47;2.27;;;20.20;99.90;;;;;;5082790;28;20473;-80
2022/07/12 02:32:33;;;;;;;3.10;2.00;;;20.20;99.90;;;;;;5080481;28;21000;-80
2022/07/12 02:35:01;;;;;;;2.40;2.20;;;20.20;99.90;;;;;;5086041;28;20458;-81
2022/07/12 02:37:29;;;;;;;2.33;2.23;;;20.20;99.90;;;;;;5080983;28;20464;-80
2022/07/12 02:42:40;;;;;;;2.23;2.03;;;20.20;99.90;;;;;;5081732;28;21032;-80
2022/07/12 02:45:08;;;;;;;2.13;2.03;;;20.10;99.90;;;;;;5078306;28;20474;-81
2022/07/12 02:47:39;;;;;;;2.23;2.13;;;20.10;99.90;;;;;;5079551;28;20460;-81
2022/07/12 02:50:08;;;;;;;2.70;2.50;;;20.10;99.90;;;;;;5082179;28;21151;-80
2022/07/12 02:52:36;;;;;;;2.00;1.90;;;20.00;99.90;;;;;;5083097;28;20503;-80
2022/07/12 02:55:05;;;;;;;2.60;2.40;;;20.00;99.90;;;;;;5083995;28;20445;-80
2022/07/12 02:57:33;;;;;;;2.07;1.97;;;20.10;99.90;;;;;;5081605;28;20441;-80
2022/07/12 03:00:01;;;;;;;2.73;2.03;;;20.10;99.90;;;;;;5084450;28;20449;-79
2022/07/12 03:02:29;;;;;;;2.53;2.33;;;20.00;99.90;;;;;;5082926;28;21281;-80
2022/07/12 03:05:00;;;;;;;2.00;1.90;;;20.10;99.90;;;;;;5082345;28;20481;-80
2022/07/12 03:07:28;;;;;;;2.20;2.10;;;20.10;99.90;;;;;;5081370;28;20454;-80
2022/07/12 03:09:56;;;;;;;2.17;2.03;;;20.10;99.90;;;;;;5079141;28;20455;-81
2022/07/12 03:12:25;;;;;;;2.40;2.30;;;20.10;99.90;;;;;;5082710;28;20477;-81
2022/07/12 03:14:54;;;;;;;2.57;2.37;;;20.10;99.90;;;;;;5084302;28;20515;-79
2022/07/12 03:17:23;;;;;;;2.00;1.90;;;20.10;99.90;;;;;;5080656;28;20503;-81
2022/07/12 03:19:51;;;;;;;2.50;2.30;;;20.00;99.90;;;;;;5078093;28;21338;-81
2022/07/12 03:22:21;;;;;;;5.97;2.10;;;20.00;99.90;;;;;;5080401;28;20442;-80
2022/07/12 03:24:49;;;;;;;1.80;1.70;;;20.00;99.90;;;;;;5081807;28;21044;-81
2022/07/12 03:27:17;;;;;;;2.10;1.90;;;19.90;99.90;;;;;;5087057;28;20457;-81
2022/07/12 03:29:45;;;;;;;3.20;2.27;;;19.90;99.90;;;;;;5081787;28;20466;-81
2022/07/12 03:32:13;;;;;;;3.77;2.23;;;19.80;99.90;;;;;;5083976;28;20468;-81
2022/07/12 03:34:41;;;;;;;4.43;2.17;;;19.90;99.90;;;;;;5084654;28;21006;-80
2022/07/12 03:37:10;;;;;;;2.07;1.97;;;19.90;99.90;;;;;;5085524;28;20456;-81
2022/07/12 03:39:39;;;;;;;2.10;1.90;;;19.90;99.90;;;;;;5086030;28;20450;-81
2022/07/12 03:42:07;;;;;;;2.70;2.50;;;19.90;99.90;;;;;;5083996;28;20445;-80
2022/07/12 03:44:35;;;;;;;5.87;2.10;;;19.90;99.90;;;;;;5085228;28;20899;-80
2022/07/12 03:47:04;;;;;;;2.37;2.27;;;19.90;99.90;;;;;;5084281;28;20842;-80
2022/07/12 03:49:32;;;;;;;2.10;2.00;;;19.90;99.90;;;;;;5088915;28;20453;-80
2022/07/12 03:52:02;;;;;;;2.10;2.00;;;19.90;99.90;;;;;;5086647;28;20438;-79
2022/07/12 03:54:30;;;;;;;2.23;2.13;;;19.90;99.90;;;;;;5083731;28;20465;-81
2022/07/12 03:57:15;;;;;;;2.20;2.00;;;19.90;99.90;;;;;;5086688;28;20441;-81
2022/07/12 03:59:45;;;;;;;2.27;2.07;;;19.90;99.90;;;;;;5084064;28;20484;-82
2022/07/12 04:02:13;;;;;;;1.83;1.73;;;19.90;99.90;;;;;;5081851;28;20442;-81
2022/07/12 04:04:42;;;;;;;2.07;1.87;;;19.90;99.90;;;;;;5079698;28;20454;-80
2022/07/12 04:07:10;;;;;;;3.00;1.77;;;19.90;99.90;;;;;;5085199;28;20484;-81
2022/07/12 04:09:39;;;;;;;2.13;1.90;;;19.90;99.90;;;;;;5079469;28;20465;-80
2022/07/12 04:12:09;;;;;;;3.73;2.20;;;19.90;99.90;;;;;;5085970;28;20442;-79
2022/07/12 04:14:38;;;;;;;2.43;2.20;;;19.80;99.90;;;;;;5084188;28;20461;-80
2022/07/12 04:17:06;;;;;;;2.90;2.40;;;19.90;99.90;;;;;;5084668;28;20445;-80
2022/07/12 04:19:34;;;;;;;2.30;2.00;;;19.80;99.90;;;;;;5082886;28;20513;-79
2022/07/12 04:22:03;;;;;;;2.60;2.03;;;19.70;99.90;;;;;;5086216;28;20532;-79
2022/07/12 04:24:32;;;;;;;2.57;2.37;;;19.70;99.90;;;;;;5082759;28;20459;-80
2022/07/12 04:27:00;;;;;;;3.23;2.43;;;19.70;99.90;;;;;;5086788;28;20458;-79
2022/07/12 04:29:30;;;;;;;2.30;2.20;;;19.70;99.90;;;;;;5086331;28;20910;-80
2022/07/12 04:31:58;;;;;;;2.30;2.00;;;19.80;99.90;;;;;;5089767;28;20455;-80
2022/07/12 04:34:26;;;;;;;2.10;1.93;;;19.70;99.90;;;;;;5084449;28;20499;-81
2022/07/12 04:36:55;;;;;;;3.40;2.70;;;19.70;99.90;;;;;;5087482;28;20533;-80
2022/07/12 04:39:23;;;;;;;3.33;2.77;;;19.60;99.90;;;;;;5080500;28;21142;-81
2022/07/12 04:41:51;;;;;;;2.70;2.50;;;19.50;99.90;;;;;;5077370;28;20449;-81
2022/07/12 04:44:19;;;;;;;2.60;2.30;;;19.50;99.90;;;;;;5080758;28;20846;-81
2022/07/12 04:46:49;;;;;;;2.83;2.63;;;19.50;99.90;;;;;;5081306;28;20482;-81
2022/07/12 04:49:17;;;;;;;4.23;1.50;;;19.50;99.90;;;;;;5079719;28;20490;-83
2022/07/12 04:51:46;;;;;;;2.67;2.47;;;19.50;99.90;;;;;;5079391;28;20533;-81
2022/07/12 04:54:14;;;;;;;2.87;2.20;;;19.50;99.90;;;;;;5082199;28;20488;-81
2022/07/12 04:56:43;;;;;;;3.00;2.70;;;19.60;99.90;;;;;;5088902;28;20438;-82
2022/07/12 04:59:11;;;;;;;2.73;2.10;;;19.60;99.90;;;;;;5081331;28;20467;-82
2022/07/12 05:01:39;;;;;;;3.17;2.50;;;19.60;99.90;;;;;;5086581;28;20456;-83
2022/07/12 05:04:09;;;;;;;2.50;2.30;;;19.60;99.90;;;;;;5084816;28;20571;-82
2022/07/12 05:06:37;;;;;;;2.70;2.40;;;19.70;99.90;;;;;;5079952;28;20542;-81
2022/07/12 05:09:05;;;;;;;3.77;2.73;;;19.70;99.90;;;;;;5074469;28;20465;-81
2022/07/12 05:11:34;;;;;;;3.00;2.80;;;19.80;99.90;;;;;;5081895;28;20684;-81
2022/07/12 05:14:02;;;;;;;3.40;3.20;;;19.80;99.90;;;;;;5084006;28;20466;-81
2022/07/12 05:16:30;;;;;;;2.93;2.73;;;19.80;99.90;;;;;;5078500;28;20477;-81
2022/07/12 05:18:58;;;;;;;3.07;2.87;;;19.90;99.90;;;;;;5084630;28;21016;-82
2022/07/12 05:21:28;;;;;;;2.93;2.73;;;19.90;99.90;;;;;;5084930;28;20457;-80
2022/07/12 05:23:57;;;;;;;2.87;2.40;;;20.00;99.90;;;;;;5084478;28;20472;-81
2022/07/12 05:26:25;;;;;;;5.03;3.20;;;20.10;99.90;;;;;;5089351;28;20458;-81
2022/07/12 05:28:54;;;;;;;3.10;2.80;;;20.10;99.90;;;;;;5088256;28;20449;-80
2022/07/12 05:31:23;;;;;;;3.60;2.87;;;20.20;99.90;;;;;;5090031;28;20457;-80
2022/07/12 05:33:52;;;;;;;4.13;3.60;;;20.10;99.90;;;;;;5082471;28;20473;-81
2022/07/12 05:36:20;;;;;;;3.70;2.80;;;20.20;99.90;;;;;;5084843;28;20457;-79
2022/07/12 05:38:50;;;;;;;4.47;2.40;;;20.30;99.90;;;;;;5086792;28;20478;-81
2022/07/12 05:41:18;;;;;;;2.30;1.80;;;20.30;99.90;;;;;;5081803;28;20454;-80
2022/07/12 05:43:46;;;;;;;2.47;2.07;;;20.30;99.90;;;;;;5081504;28;20482;-80
2022/07/12 05:46:14;;;;;;;2.47;2.27;;;20.30;99.90;;;;;;5081471;28;20470;-80
2022/07/12 05:48:42;;;;;;;4.07;2.93;;;20.40;99.90;;;;;;5083338;28;20837;-80
2022/07/12 05:53:58;;;;;;;2.10;2.00;;;20.50;99.90;;;;;;5083297;28;20480;-80
2022/07/12 05:56:26;;;;;;;2.27;2.13;;;20.50;99.90;;;;;;5083608;28;20447;-81
2022/07/12 05:58:54;;;;;;;1.60;1.50;;;20.50;99.90;;;;;;5086100;28;20458;-81
2022/07/12 06:01:22;;;;;;;2.50;1.40;;;20.60;99.90;;;;;;5084131;28;20474;-79
2022/07/12 06:03:50;;;;;;;1.70;1.60;;;20.70;99.90;;;;;;5087045;28;20477;-80
2022/07/12 06:06:19;;;;;;;1.70;1.60;;;20.70;99.90;;;;;;5081821;28;20464;-80
2022/07/12 06:08:47;;;;;;;1.93;1.40;;;20.80;99.90;;;;;;5084264;28;20450;-80
2022/07/12 06:11:16;;;;;;;1.60;1.30;;;20.80;99.90;;;;;;5081323;28;20461;-79
2022/07/12 06:13:44;;;;;;;2.10;1.43;;;20.80;99.90;;;;;;5080401;28;20466;-79
2022/07/12 06:16:13;;;;;;;1.60;1.50;;;20.80;99.90;;;;;;5080967;28;20469;-80
2022/07/12 06:18:41;;;;;;;2.27;1.00;;;20.80;99.90;;;;;;5083814;28;20941;-78
2022/07/12 06:21:09;;;;;;;1.10;1.00;;;20.90;99.90;;;;;;5081059;28;20461;-80
2022/07/12 06:23:37;;;;;;;1.13;0.93;;;20.90;99.90;;;;;;5079279;28;20471;-80
2022/07/12 06:26:06;;;;;;;1.53;1.00;;;21.00;99.90;;;;;;5076910;28;20453;-80
2022/07/12 06:28:36;;;;;;;0.80;0.80;;;21.00;99.90;;;;;;5077304;28;20486;-78
2022/07/12 06:31:05;;;;;;;1.20;1.10;;;21.00;99.90;;;;;;5079611;28;20808;-80
2022/07/12 06:33:34;;;;;;;1.00;1.00;;;21.10;99.90;;;;;;5081738;28;20488;-80
2022/07/12 06:36:02;;;;;;;1.00;1.00;;;21.10;99.90;;;;;;5079357;28;20450;-79
2022/07/12 06:38:31;;;;;;;3.30;1.10;;;21.10;99.90;;;;;;5080281;28;20471;-79
2022/07/12 06:41:08;;;;;;;0.80;0.80;;;21.20;99.90;;;;;;5084233;28;21219;-80
2022/07/12 06:43:37;;;;;;;1.30;1.10;;;21.20;99.90;;;;;;5083403;28;20566;-80
2022/07/12 06:46:06;;;;;;;1.10;0.90;;;21.20;99.90;;;;;;5079550;28;20453;-80
2022/07/12 06:48:34;;;;;;;2.23;0.90;;;21.20;99.90;;;;;;5081943;28;20494;-80
2022/07/12 06:51:02;;;;;;;0.90;0.90;;;21.30;99.90;;;;;;5081447;28;20469;-79
2022/07/12 06:53:31;;;;;;;1.03;0.80;;;21.30;99.90;;;;;;5081814;28;20496;-80
2022/07/12 06:55:59;;;;;;;1.00;0.90;;;21.40;99.90;;;;;;5075136;28;20458;-76
2022/07/12 06:58:28;;;;;;;1.00;0.90;;;21.40;99.90;;;;;;5086502;28;20434;-79
2022/07/12 07:00:57;;;;;;;1.00;0.90;;;21.50;99.90;;;;;;5079078;28;20473;-80
2022/07/12 07:03:25;;;;;;;0.97;0.97;;;21.60;99.90;;;;;;5082807;28;20615;-80
2022/07/12 07:05:54;;;;;;;0.90;0.90;;;21.70;99.90;;;;;;5082363;28;20533;-80
2022/07/12 07:08:22;;;;;;;0.93;0.90;;;21.80;99.90;;;;;;5074255;28;20993;-80
2022/07/12 07:10:50;;;;;;;0.80;0.80;;;21.90;99.90;;;;;;5087389;28;20474;-81
2022/07/12 07:13:18;;;;;;;0.97;0.80;;;22.00;99.90;;;;;;5081902;28;21199;-79
2022/07/12 07:15:47;;;;;;;1.13;0.90;;;22.00;99.90;;;;;;5084311;28;20460;-80
2022/07/12 07:18:16;;;;;;;0.90;0.90;;;22.10;99.90;;;;;;5087269;28;20443;-80
2022/07/12 07:20:44;;;;;;;1.83;1.23;;;22.20;99.90;;;;;;5083972;28;20541;-81
2022/07/12 07:23:16;;;;;;;1.30;0.90;;;22.10;99.90;;;;;;5079920;28;20479;-80
2022/07/12 07:25:45;;;;;;;1.23;1.00;;;22.20;99.90;;;;;;5080187;28;20887;-80
2022/07/12 07:28:13;;;;;;;1.00;0.90;;;22.30;99.90;;;;;;5081498;28;20475;-79
2022/07/12 07:30:52;;;;;;;1.17;0.80;;;22.30;99.90;;;;;;5078171;28;20995;-81
2022/07/12 07:33:22;;;;;;;0.80;0.80;;;22.40;99.90;;;;;;5080951;28;20571;-80
2022/07/12 07:35:52;;;;;;;0.80;0.80;;;22.40;99.90;;;;;;5083505;28;20456;-80
2022/07/12 07:38:20;;;;;;;0.80;0.80;;;22.40;99.90;;;;;;5079055;28;20458;-81
2022/07/12 07:40:48;;;;;;;0.70;0.70;;;22.50;99.90;;;;;;5080789;28;23281;-80
2022/07/12 07:43:17;;;;;;;0.80;0.80;;;22.50;99.90;;;;;;5084850;28;20480;-85
2022/07/12 07:45:46;;;;;;;0.90;0.90;;;22.60;99.90;;;;;;5080873;28;20467;-80
2022/07/12 07:48:14;;;;;;;0.80;0.80;;;22.60;99.90;;;;;;5086489;28;20594;-81
2022/07/12 07:50:54;;;;;;;0.70;0.70;;;22.60;99.90;;;;;;5085914;28;20950;-81
2022/07/12 07:53:24;;;;;;;1.23;0.80;;;22.60;99.90;;;;;;5080975;28;20476;-80
2022/07/12 07:55:52;;;;;;;0.70;0.70;;;22.70;99.90;;;;;;5079439;28;20461;-81
2022/07/12 07:58:21;;;;;;;0.93;0.70;;;22.70;99.90;;;;;;5084240;28;20456;-82
2022/07/12 08:00:51;;;;;;;0.80;0.70;;;22.70;99.90;;;;;;5082644;28;20461;-81
2022/07/12 08:03:20;;;;;;;0.70;0.70;;;22.70;99.90;;;;;;5085033;28;20490;-81
2022/07/12 08:05:50;;;;;;;0.80;0.60;;;22.80;99.90;;;;;;5082707;28;21021;-80
2022/07/12 08:08:20;;;;;;;0.63;0.63;;;22.80;99.90;;;;;;5081990;28;20538;-81
2022/07/12 08:10:50;;;;;;;0.70;0.70;;;22.90;99.90;;;;;;5083468;28;20450;-80
2022/07/12 08:13:18;;;;;;;0.83;0.83;;;22.90;99.90;;;;;;5082433;28;20470;-84
2022/07/12 08:15:46;;;;;;;0.60;0.60;;;23.00;99.90;;;;;;5079871;28;20472;-81
2022/07/12 08:18:15;;;;;;;0.80;0.80;;;23.00;99.90;;;;;;5083871;28;20441;-80
2022/07/12 08:20:43;;;;;;;0.77;0.77;;;23.00;99.90;;;;;;5087086;28;20465;-82
2022/07/12 08:23:15;;;;;;;0.87;0.87;;;23.10;99.90;;;;;;5082160;28;20964;-81
2022/07/12 08:25:44;;;;;;;1.33;0.70;;;23.10;99.90;;;;;;5080188;28;20469;-80
2022/07/12 08:28:12;;;;;;;0.73;0.73;;;23.20;99.90;;;;;;5081334;28;21085;-81
2022/07/12 08:30:41;;;;;;;1.00;0.90;;;23.20;99.90;;;;;;5083321;28;20461;-82
2022/07/12 08:33:15;;;;;;;0.80;0.80;;;23.30;99.90;;;;;;5086687;28;20575;-82
2022/07/12 08:35:44;;;;;;;0.80;0.80;;;23.30;99.90;;;;;;5083042;28;20466;-82
2022/07/12 08:38:13;;;;;;;0.80;0.80;;;23.30;99.90;;;;;;5087903;28;20464;-82
2022/07/12 08:40:42;;;;;;;0.80;0.73;;;23.30;99.90;;;;;;5084637;28;20550;-82
2022/07/12 08:43:12;;;;;;;1.37;0.80;;;23.30;99.90;;;;;;5083310;28;20481;-82
2022/07/12 08:45:40;;;;;;;0.87;0.80;;;23.30;99.90;;;;;;5082229;28;20499;-82
2022/07/12 08:48:09;;;;;;;1.37;0.83;;;23.30;99.90;;;;;;5086413;28;20480;-81
2022/07/12 08:50:37;;;;;;;0.80;0.80;;;23.30;99.90;;;;;;5086367;28;20457;-83
2022/07/12 08:53:13;;;;;;;0.80;0.80;;;23.40;99.90;;;;;;5084596;28;20519;-82
2022/07/12 08:55:41;;;;;;;0.90;0.90;;;23.50;99.90;;;;;;5084473;28;20468;-84
2022/07/12 08:58:18;;;;;;;0.80;0.80;;;23.60;99.90;;;;;;5089751;28;20829;-82
2022/07/12 09:00:47;;;;;;;0.87;0.87;;;23.70;99.90;;;;;;5084506;28;20446;-82
2022/07/12 09:03:18;;;;;;;0.80;0.80;;;23.70;99.90;;;;;;5087405;28;20493;-82
2022/07/12 09:05:54;;;;;;;0.73;0.73;;;23.80;99.90;;;;;;5085168;28;20454;-82
2022/07/12 09:08:27;;;;;;;1.00;0.90;;;23.80;99.90;;;;;;5086545;28;20472;-81
2022/07/12 09:10:58;;;;;;;1.03;0.80;;;23.90;99.90;;;;;;5088460;28;20782;-82
2022/07/12 09:13:53;;;;;;;1.17;1.07;;;23.80;99.90;;;;;;5085962;28;20477;-83
2022/07/12 09:16:23;;;;;;;2.03;0.90;;;23.80;99.90;;;;;;5079179;28;20454;-83
2022/07/12 09:19:11;;;;;;;1.13;0.90;;;23.80;99.90;;;;;;5084799;28;20456;-82
2022/07/12 09:21:48;;;;;;;1.20;1.10;;;23.80;99.90;;;;;;5079579;28;20451;-82
2022/07/12 09:24:17;;;;;;;1.10;0.90;;;23.90;99.90;;;;;;5082799;28;20472;-82
2022/07/12 09:26:46;;;;;;;0.90;0.90;;;23.90;99.90;;;;;;5084434;28;20454;-82
2022/07/12 09:29:18;;;;;;;1.40;1.30;;;23.90;99.90;;;;;;5086183;28;20497;-82
2022/07/12 09:37:25;;;;;;;0.70;0.70;;;24.10;99.90;;;;;;5083463;28;20998;-82
2022/07/12 09:39:53;;;;;;;0.90;0.80;;;24.10;99.90;;;;;;5086707;28;20450;-82
2022/07/12 09:42:22;;;;;;;0.97;0.97;;;24.10;99.90;;;;;;5086603;28;20450;-82
2022/07/12 09:44:57;;;;;;;1.33;1.00;;;24.20;99.90;;;;;;5086339;28;21048;-84
2022/07/12 09:47:26;;;;;;;1.10;1.00;;;24.20;99.90;;;;;;5083579;28;20533;-82
2022/07/12 09:49:55;;;;;;;1.00;0.87;;;24.20;99.90;;;;;;5084391;28;20498;-82
2022/07/12 09:52:25;;;;;;;1.57;1.00;;;24.20;99.90;;;;;;5081775;28;20462;-82
2022/07/12 09:54:55;;;;;;;1.00;0.90;;;24.30;99.90;;;;;;5085643;28;21053;-83
2022/07/12 09:57:30;;;;;;;1.37;0.90;;;24.30;99.90;;;;;;5087427;28;20973;-83
2022/07/12 10:00:02;;;;;;;0.77;0.77;;;24.40;99.90;;;;;;5086861;28;20437;-82
2022/07/12 10:02:31;;;;;;;1.00;1.00;;;24.40;99.90;;;;;;5086267;28;20476;-84
2022/07/12 10:05:04;;;;;;;1.77;0.80;;;24.40;99.90;;;;;;5074435;28;20877;-82
2022/07/12 10:07:33;;;;;;;3.07;0.90;;;24.40;99.90;;;;;;5082783;28;20457;-82
2022/07/12 10:10:01;;;;;;;0.97;0.97;;;24.40;99.90;;;;;;5088102;28;20485;-83
2022/07/12 10:12:30;;;;;;;0.70;0.70;;;24.40;99.90;;;;;;5085189;28;20476;-83
2022/07/12 10:15:03;;;;;;;2.40;0.83;;;24.40;99.90;;;;;;5083009;28;20511;-83
2022/07/12 10:17:33;;;;;;;0.70;0.70;;;24.40;99.90;;;;;;5082696;28;21099;-83
2022/07/12 10:20:19;;;;;;;1.07;0.97;;;24.40;99.90;;;;;;5089071;28;20914;-82
2022/07/12 10:22:47;;;;;;;1.30;1.00;;;24.40;99.90;;;;;;5079710;28;20476;-83
2022/07/12 10:25:33;;;;;;;0.60;0.60;;;24.50;99.90;;;;;;5086619;28;20466;-83
2022/07/12 10:28:02;;;;;;;0.67;0.60;;;24.50;99.90;;;;;;5083725;28;20507;-81
2022/07/12 10:30:41;;;;;;;0.80;0.80;;;24.50;99.90;;;;;;5076919;28;20552;-83
2022/07/12 10:33:16;;;;;;;0.70;0.70;;;24.50;99.90;;;;;;5086889;28;20580;-83
2022/07/12 10:36:00;;;;;;;0.70;0.70;;;24.70;99.90;;;;;;5090361;28;20472;-82
2022/07/12 10:38:28;;;;;;;1.20;1.10;;;24.70;99.90;;;;;;5091267;28;20441;-82
2022/07/12 10:40:57;;;;;;;0.73;0.73;;;24.80;99.90;;;;;;5081393;28;20446;-83
2022/07/12 10:46:25;;;;;;;1.53;1.30;;;24.70;99.90;;;;;;5086240;28;20458;-82
2022/07/12 10:49:27;;;;;;;1.20;1.10;;;24.80;99.90;;;;;;5085229;28;20481;-83
2022/07/12 10:52:16;;;;;;;1.30;0.70;;;24.80;99.90;;;;;;5081806;28;20536;-83
2022/07/12 10:55:08;;;;;;;0.80;0.80;;;24.80;99.90;;;;;;5078093;28;21015;-83
2022/07/12 10:57:42;;;;;;;0.70;0.70;;;24.80;99.90;;;;;;5085305;28;20485;-83
2022/07/12 11:00:12;;;;;;;0.83;0.73;;;24.80;99.90;;;;;;5078895;28;20548;-82
2022/07/12 11:02:43;;;;;;;0.60;0.60;;;24.80;99.90;;;;;;5084689;28;20467;-83
2022/07/12 11:05:12;;;;;;;0.90;0.70;;;24.80;99.90;;;;;;5085127;28;20495;-82
2022/07/12 11:07:41;;;;;;;0.60;0.60;;;24.90;99.90;;;;;;5082134;28;20457;-83
2022/07/12 11:10:13;;;;;;;0.63;0.63;;;24.90;99.90;;;;;;5089401;28;20569;-83
2022/07/12 11:12:41;;;;;;;0.70;0.70;;;25.00;99.90;;;;;;5082051;28;20506;-82
2022/07/12 11:15:10;;;;;;;0.60;0.60;;;25.00;99.90;;;;;;5088449;28;20500;-81
2022/07/12 11:17:39;;;;;;;1.10;0.70;;;25.00;99.90;;;;;;5084511;28;20533;-83
2022/07/12 11:20:11;;;;;;;0.80;0.60;;;25.00;99.90;;;;;;5081417;28;20446;-81
2022/07/12 11:22:41;;;;;;;0.60;0.60;;;25.10;99.90;;;;;;5073904;28;20826;-83
2022/07/12 11:25:13;;;;;;;0.50;0.50;;;25.10;99.90;;;;;;5087205;28;21167;-82
2022/07/12 11:27:41;;;;;;;0.70;0.70;;;25.10;99.90;;;;;;5092947;28;21002;-83
2022/07/12 11:30:10;;;;;;;0.80;0.70;;;25.10;99.90;;;;;;5091957;28;20511;-83
2022/07/12 11:32:40;;;;;;;0.60;0.60;;;25.20;99.90;;;;;;5092122;28;20511;-83
2022/07/12 11:35:25;;;;;;;0.60;0.60;;;25.20;99.90;;;;;;5091479;28;20474;-82
2022/07/12 11:37:55;;;;;;;0.60;0.60;;;25.30;99.90;;;;;;5089840;28;20503;-82
2022/07/12 11:40:28;;;;;;;0.50;0.50;;;25.30;99.90;;;;;;5093253;28;20441;-82
2022/07/12 11:42:59;;;;;;;1.30;0.50;;;25.30;99.90;;;;;;5092776;28;20473;-83
2022/07/12 11:45:28;;;;;;;1.30;0.50;;;25.30;99.90;;;;;;5094513;28;20545;-83
2022/07/12 11:47:59;;;;;;;0.50;0.50;;;25.40;99.90;;;;;;5096444;28;20448;-83
2022/07/12 11:50:30;;;;;;;0.50;0.50;;;25.30;99.90;;;;;;5089916;28;20471;-83
2022/07/12 11:53:03;;;;;;;0.70;0.70;;;25.40;99.90;;;;;;5090673;28;20554;-83
2022/07/12 11:55:32;;;;;;;0.70;0.70;;;25.30;99.90;;;;;;5085490;28;21044;-81
2022/07/12 11:58:07;;;;;;;0.53;0.53;;;25.50;99.90;;;;;;5081032;28;20446;-83
2022/07/12 12:00:35;;;;;;;1.13;0.77;;;25.40;99.90;;;;;;5086130;28;20532;-83
2022/07/12 12:03:04;;;;;;;0.60;0.60;;;25.40;99.90;;;;;;5091330;28;20469;-83
2022/07/12 12:05:35;;;;;;;1.13;0.60;;;25.40;99.90;;;;;;5084492;28;20437;-82
2022/07/12 12:08:04;;;;;;;0.57;0.57;;;25.40;99.90;;;;;;5089849;28;20449;-83
2022/07/12 12:10:33;;;;;;;0.60;0.53;;;25.40;99.90;;;;;;5078484;28;20465;-81
2022/07/12 12:13:02;;;;;;;0.60;0.50;;;25.50;99.90;;;;;;5081451;28;20944;-82
2022/07/12 12:15:32;;;;;;;0.60;0.60;;;25.50;99.90;;;;;;5080243;28;20531;-82
2022/07/12 12:18:02;;;;;;;0.80;0.70;;;25.60;99.90;;;;;;5084221;28;20444;-82
2022/07/12 12:20:31;;;;;;;0.60;0.60;;;25.60;99.90;;;;;;5076689;28;20462;-82
2022/07/12 12:23:02;;;;;;;0.60;0.60;;;25.60;99.90;;;;;;5086337;28;20478;-82
2022/07/12 12:25:31;;;;;;;1.73;0.60;;;25.60;99.90;;;;;;5086574;28;20450;-82
2022/07/12 12:28:01;;;;;;;0.70;0.60;;;25.50;99.90;;;;;;5086525;28;20500;-84
2022/07/12 12:30:52;;;;;;;0.80;0.67;;;25.60;99.90;;;;;;5087059;28;20509;-82
2022/07/12 12:33:37;;;;;;;0.50;0.50;;;25.60;99.90;;;;;;5083537;28;21081;-82
2022/07/12 12:36:20;;;;;;;0.50;0.50;;;25.70;99.90;;;;;;5086258;28;21205;-82
2022/07/12 12:38:51;;;;;;;0.50;0.50;;;25.60;99.90;;;;;;5082977;28;20540;-82
2022/07/12 12:41:22;;;;;;;0.70;0.60;;;25.60;99.90;;;;;;5085452;28;20481;-82
2022/07/12 12:43:59;;;;;;;0.53;0.53;;;25.60;99.90;;;;;;5083097;28;20473;-83
2022/07/12 12:47:30;;;;;;;0.80;0.60;;;25.70;99.90;;;;;;5081492;28;20457;-82
2022/07/12 12:49:45;;;;;;;0.53;0.53;;;25.70;99.90;;;;;;5084276;28;20449;-83
2022/07/12 12:52:21;;;;;;;0.73;0.60;;;25.60;99.90;;;;;;5081536;28;20454;-82
2022/07/12 12:54:51;;;;;;;0.50;0.50;;;25.60;99.90;;;;;;5082936;28;20528;-81
2022/07/12 12:57:19;;;;;;;0.57;0.57;;;25.60;99.90;;;;;;5086581;28;20999;-83
2022/07/12 12:59:48;;;;;;;0.53;0.53;;;25.70;99.90;;;;;;5086592;28;20449;-81
2022/07/12 13:02:16;;;;;;;0.67;0.67;;;25.70;99.90;;;;;;5080345;28;20469;-83
2022/07/12 13:04:45;;;;;;;0.60;0.60;;;25.70;99.90;;;;;;5082843;28;20539;-82
2022/07/12 13:07:13;;;;;;;0.60;0.60;;;25.70;99.90;;;;;;5079940;28;20454;-82
2022/07/12 13:09:41;;;;;;;0.80;0.50;;;25.70;99.90;;;;;;5082788;28;20543;-82
2022/07/12 13:12:11;;;;;;;0.70;0.70;;;25.70;99.90;;;;;;5083313;28;20489;-83
2022/07/12 13:14:39;;;;;;;1.00;0.60;;;25.70;99.90;;;;;;5085832;28;20446;-83
2022/07/12 13:17:07;;;;;;;0.93;0.60;;;25.80;99.90;;;;;;5086239;28;20456;-83
2022/07/12 13:19:37;;;;;;;0.60;0.60;;;25.80;99.90;;;;;;5083345;28;20457;-82
2022/07/12 13:22:05;;;;;;;0.60;0.60;;;25.80;99.90;;;;;;5091188;28;20479;-82
2022/07/12 13:24:34;;;;;;;1.37;0.60;;;25.80;99.90;;;;;;5092267;28;20465;-82